sensor_id;sensor_type;location;lat;lon;timestamp;pressure;altitude;pressure_sealevel;temperature;humidity
47897;BME280;39629;51.400;5.494;2022-08-03T00:02:35;101384.25;;;19.85;92.75
47897;BME280;39629;51.400;5.494;2022-08-03T00:07:37;101378.19;;;19.99;91.69
47897;BME280;39629;51.400;5.494;2022-08-03T00:12:40;101384.91;;;19.87;93.21
47897;BME280;39629;51.400;5.494;2022-08-03T00:17:43;101384.50;;;20.14;90.01
47897;BME280;39629;51.400;5.494;2022-08-03T00:22:45;101378.44;;;19.81;93.24
47897;BME280;39629;51.400;5.494;2022-08-03T00:27:46;101383.22;;;19.94;94.35
47897;BME280;39629;51.400;5.494;2022-08-03T00:32:50;101383.84;;;20.04;93.73
47897;BME280;39629;51.400;5.494;2022-08-03T00:37:51;101375.50;;;20.07;93.28
47897;BME280;39629;51.400;5.494;2022-08-03T00:42:54;101384.16;;;19.62;96.25
47897;BME280;39629;51.400;5.494;2022-08-03T00:47:58;101372.50;;;19.54;95.72
47897;BME280;39629;51.400;5.494;2022-08-03T00:53:03;101372.97;;;19.66;95.19
47897;BME280;39629;51.400;5.494;2022-08-03T00:58:05;101373.44;;;19.78;94.90
47897;BME280;39629;51.400;5.494;2022-08-03T01:03:09;101376.25;;;19.85;95.36
47897;BME280;39629;51.400;5.494;2022-08-03T01:08:18;101371.94;;;19.75;93.88
47897;BME280;39629;51.400;5.494;2022-08-03T01:13:27;101362.78;;;19.70;92.83
47897;BME280;39629;51.400;5.494;2022-08-03T01:18:36;101366.00;;;19.57;94.50
47897;BME280;39629;51.400;5.494;2022-08-03T01:23:50;101365.03;;;19.33;94.59
47897;BME280;39629;51.400;5.494;2022-08-03T01:29:13;101359.34;;;19.12;95.18
47897;BME280;39629;51.400;5.494;2022-08-03T01:34:25;101365.00;;;18.76;95.52
47897;BME280;39629;51.400;5.494;2022-08-03T01:39:28;101359.53;;;18.78;94.38
47897;BME280;39629;51.400;5.494;2022-08-03T01:44:34;101358.03;;;18.75;94.86
47897;BME280;39629;51.400;5.494;2022-08-03T01:49:42;101349.69;;;18.95;95.13
47897;BME280;39629;51.400;5.494;2022-08-03T01:54:46;101353.00;;;18.97;95.76
47897;BME280;39629;51.400;5.494;2022-08-03T01:59:49;101354.53;;;18.83;97.77
47897;BME280;39629;51.400;5.494;2022-08-03T02:04:55;101352.03;;;18.89;97.03
47897;BME280;39629;51.400;5.494;2022-08-03T02:09:57;101343.19;;;18.89;97.51
47897;BME280;39629;51.400;5.494;2022-08-03T02:15:01;101343.69;;;18.92;96.49
47897;BME280;39629;51.400;5.494;2022-08-03T02:20:05;101346.66;;;18.57;97.90
47897;BME280;39629;51.400;5.494;2022-08-03T02:25:08;101349.31;;;18.40;97.89
47897;BME280;39629;51.400;5.494;2022-08-03T02:30:11;101348.47;;;18.48;97.78
47897;BME280;39629;51.400;5.494;2022-08-03T02:35:15;101349.00;;;18.68;96.75
47897;BME280;39629;51.400;5.494;2022-08-03T02:40:20;101346.00;;;18.71;97.50
47897;BME280;39629;51.400;5.494;2022-08-03T02:45:25;101335.84;;;18.58;96.53
47897;BME280;39629;51.400;5.494;2022-08-03T02:50:30;101340.34;;;18.50;96.74
47897;BME280;39629;51.400;5.494;2022-08-03T02:55:34;101333.31;;;18.40;96.41
47897;BME280;39629;51.400;5.494;2022-08-03T03:00:37;101335.22;;;18.22;98.28
47897;BME280;39629;51.400;5.494;2022-08-03T03:05:41;101334.63;;;18.36;97.14
47897;BME280;39629;51.400;5.494;2022-08-03T03:10:43;101329.31;;;18.36;98.20
47897;BME280;39629;51.400;5.494;2022-08-03T03:15:46;101331.28;;;18.34;100.00
47897;BME280;39629;51.400;5.494;2022-08-03T03:20:50;101328.19;;;18.55;100.00
47897;BME280;39629;51.400;5.494;2022-08-03T03:25:54;101330.34;;;18.52;99.23
47897;BME280;39629;51.400;5.494;2022-08-03T03:30:57;101329.34;;;18.53;99.91
47897;BME280;39629;51.400;5.494;2022-08-03T03:36:01;101329.84;;;18.56;97.42
47897;BME280;39629;51.400;5.494;2022-08-03T03:41:04;101326.81;;;18.43;99.07
47897;BME280;39629;51.400;5.494;2022-08-03T03:46:06;101332.31;;;18.41;100.00
47897;BME280;39629;51.400;5.494;2022-08-03T03:51:09;101332.31;;;18.33;100.00
47897;BME280;39629;51.400;5.494;2022-08-03T03:56:10;101329.63;;;18.33;100.00
47897;BME280;39629;51.400;5.494;2022-08-03T04:01:12;101337.47;;;18.35;100.00
47897;BME280;39629;51.400;5.494;2022-08-03T04:06:15;101325.47;;;18.39;100.00
47897;BME280;39629;51.400;5.494;2022-08-03T04:11:37;101328.81;;;18.41;98.01
47897;BME280;39629;51.400;5.494;2022-08-03T04:16:42;101324.78;;;18.29;100.00
47897;BME280;39629;51.400;5.494;2022-08-03T04:21:49;101330.41;;;18.25;100.00
47897;BME280;39629;51.400;5.494;2022-08-03T04:26:52;101326.25;;;18.23;100.00
47897;BME280;39629;51.400;5.494;2022-08-03T04:31:57;101318.63;;;18.28;100.00
47897;BME280;39629;51.400;5.494;2022-08-03T04:37:04;101331.81;;;18.30;100.00
47897;BME280;39629;51.400;5.494;2022-08-03T04:42:12;101332.63;;;18.30;100.00
47897;BME280;39629;51.400;5.494;2022-08-03T04:47:15;101336.13;;;18.39;99.03
47897;BME280;39629;51.400;5.494;2022-08-03T04:52:18;101342.00;;;18.59;97.93
47897;BME280;39629;51.400;5.494;2022-08-03T04:57:20;101334.69;;;18.61;99.41
47897;BME280;39629;51.400;5.494;2022-08-03T05:02:22;101346.13;;;18.45;100.00
47897;BME280;39629;51.400;5.494;2022-08-03T05:07:25;101356.34;;;18.58;100.00
47897;BME280;39629;51.400;5.494;2022-08-03T05:12:26;101351.84;;;18.99;99.71
47897;BME280;39629;51.400;5.494;2022-08-03T05:17:29;101355.25;;;19.73;96.92
47897;BME280;39629;51.400;5.494;2022-08-03T05:22:32;101363.78;;;20.16;94.56
47897;BME280;39629;51.400;5.494;2022-08-03T05:27:33;101371.59;;;21.03;90.53
47897;BME280;39629;51.400;5.494;2022-08-03T05:32:35;101368.81;;;21.64;88.64
47897;BME280;39629;51.400;5.494;2022-08-03T05:37:38;101364.88;;;22.41;85.96
47897;BME280;39629;51.400;5.494;2022-08-03T05:42:40;101364.81;;;22.56;82.94
47897;BME280;39629;51.400;5.494;2022-08-03T05:47:42;101369.75;;;23.16;80.07
47897;BME280;39629;51.400;5.494;2022-08-03T05:52:45;101366.94;;;23.94;78.57
47897;BME280;39629;51.400;5.494;2022-08-03T05:57:47;101363.84;;;24.39;76.11
47897;BME280;39629;51.400;5.494;2022-08-03T06:02:48;101367.00;;;24.89;74.18
47897;BME280;39629;51.400;5.494;2022-08-03T06:07:51;101367.63;;;24.64;74.77
47897;BME280;39629;51.400;5.494;2022-08-03T06:12:53;101377.38;;;24.92;70.25
47897;BME280;39629;51.400;5.494;2022-08-03T06:17:55;101373.34;;;25.88;70.83
47897;BME280;39629;51.400;5.494;2022-08-03T06:22:58;101369.97;;;26.05;69.25
47897;BME280;39629;51.400;5.494;2022-08-03T06:28:00;101369.63;;;26.40;65.00
47897;BME280;39629;51.400;5.494;2022-08-03T06:33:03;101369.91;;;26.64;67.59
47897;BME280;39629;51.400;5.494;2022-08-03T06:38:06;101370.44;;;27.29;65.53
47897;BME280;39629;51.400;5.494;2022-08-03T06:43:08;101376.91;;;27.47;62.29
47897;BME280;39629;51.400;5.494;2022-08-03T06:48:11;101380.97;;;27.56;59.65
47897;BME280;39629;51.400;5.494;2022-08-03T06:53:14;101375.00;;;27.72;60.75
47897;BME280;39629;51.400;5.494;2022-08-03T06:58:16;101375.34;;;28.13;58.13
47897;BME280;39629;51.400;5.494;2022-08-03T07:03:17;101376.84;;;28.57;56.61
47897;BME280;39629;51.400;5.494;2022-08-03T07:08:20;101377.38;;;28.17;58.23
47897;BME280;39629;51.400;5.494;2022-08-03T07:13:23;101387.44;;;28.59;55.23
47897;BME280;39629;51.400;5.494;2022-08-03T07:18:25;101390.06;;;29.19;56.42
47897;BME280;39629;51.400;5.494;2022-08-03T07:23:28;101396.84;;;28.56;56.59
47897;BME280;39629;51.400;5.494;2022-08-03T07:28:29;101402.63;;;28.60;54.31
47897;BME280;39629;51.400;5.494;2022-08-03T07:33:31;101402.63;;;29.02;53.95
47897;BME280;39629;51.400;5.494;2022-08-03T07:38:35;101397.72;;;28.68;54.44
47897;BME280;39629;51.400;5.494;2022-08-03T07:43:38;101402.06;;;28.69;53.65
47897;BME280;39629;51.400;5.494;2022-08-03T07:48:39;101403.75;;;28.82;54.33
47897;BME280;39629;51.400;5.494;2022-08-03T07:53:42;101404.50;;;29.01;52.79
47897;BME280;39629;51.400;5.494;2022-08-03T07:58:44;101402.91;;;29.71;51.97
47897;BME280;39629;51.400;5.494;2022-08-03T08:03:46;101389.53;;;29.93;51.60
47897;BME280;39629;51.400;5.494;2022-08-03T08:08:49;101397.31;;;29.89;52.32
47897;BME280;39629;51.400;5.494;2022-08-03T08:13:50;101401.50;;;29.56;50.72
47897;BME280;39629;51.400;5.494;2022-08-03T08:18:52;101404.28;;;29.50;51.74
47897;BME280;39629;51.400;5.494;2022-08-03T08:23:55;101396.63;;;30.34;48.94
47897;BME280;39629;51.400;5.494;2022-08-03T08:28:57;101392.78;;;30.18;49.24
47897;BME280;39629;51.400;5.494;2022-08-03T08:33:58;101389.97;;;30.01;49.74
47897;BME280;39629;51.400;5.494;2022-08-03T08:39:06;101390.53;;;30.89;47.40
47897;BME280;39629;51.400;5.494;2022-08-03T08:44:08;101378.53;;;30.85;47.40
47897;BME280;39629;51.400;5.494;2022-08-03T08:49:11;101385.13;;;31.62;46.79
47897;BME280;39629;51.400;5.494;2022-08-03T08:54:20;101386.81;;;32.07;43.69
47897;BME280;39629;51.400;5.494;2022-08-03T08:59:23;101379.50;;;31.69;44.96
47897;BME280;39629;51.400;5.494;2022-08-03T09:04:24;101388.84;;;31.95;43.61
47897;BME280;39629;51.400;5.494;2022-08-03T09:09:29;101377.69;;;32.18;41.33
47897;BME280;39629;51.400;5.494;2022-08-03T09:14:31;101380.06;;;32.64;42.31
47897;BME280;39629;51.400;5.494;2022-08-03T09:19:34;101386.25;;;32.05;42.38
47897;BME280;39629;51.400;5.494;2022-08-03T09:24:37;101385.88;;;32.72;42.42
47897;BME280;39629;51.400;5.494;2022-08-03T09:29:38;101382.38;;;32.82;41.50
47897;BME280;39629;51.400;5.494;2022-08-03T09:34:42;101381.22;;;33.05;41.61
47897;BME280;39629;51.400;5.494;2022-08-03T09:39:45;101386.97;;;33.46;37.83
47897;BME280;39629;51.400;5.494;2022-08-03T09:44:49;101376.72;;;33.21;39.12
47897;BME280;39629;51.400;5.494;2022-08-03T09:49:56;101392.47;;;34.19;38.18
47897;BME280;39629;51.400;5.494;2022-08-03T09:55:00;101386.41;;;33.02;40.71
47897;BME280;39629;51.400;5.494;2022-08-03T10:00:08;101385.75;;;33.27;38.85
47897;BME280;39629;51.400;5.494;2022-08-03T10:05:14;101379.13;;;33.60;38.42
47897;BME280;39629;51.400;5.494;2022-08-03T10:10:17;101378.50;;;33.48;38.05
47897;BME280;39629;51.400;5.494;2022-08-03T10:15:19;101381.66;;;34.75;36.95
47897;BME280;39629;51.400;5.494;2022-08-03T10:20:21;101377.88;;;33.88;37.25
47897;BME280;39629;51.400;5.494;2022-08-03T10:25:24;101374.78;;;34.47;37.00
47897;BME280;39629;51.400;5.494;2022-08-03T10:30:31;101370.31;;;34.00;36.08
47897;BME280;39629;51.400;5.494;2022-08-03T10:35:36;101365.53;;;34.64;35.25
47897;BME280;39629;51.400;5.494;2022-08-03T10:40:42;101349.69;;;34.66;35.59
47897;BME280;39629;51.400;5.494;2022-08-03T10:45:45;101352.88;;;35.34;33.76
47897;BME280;39629;51.400;5.494;2022-08-03T10:50:47;101350.34;;;35.58;33.55
47897;BME280;39629;51.400;5.494;2022-08-03T10:55:50;101331.63;;;34.65;34.86
47897;BME280;39629;51.400;5.494;2022-08-03T11:01:10;101328.84;;;35.11;32.49
47897;BME280;39629;51.400;5.494;2022-08-03T11:06:14;101326.03;;;35.47;33.68
47897;BME280;39629;51.400;5.494;2022-08-03T11:11:25;101323.06;;;35.93;33.26
47897;BME280;39629;51.400;5.494;2022-08-03T11:16:30;101318.34;;;35.54;33.63
47897;BME280;39629;51.400;5.494;2022-08-03T11:21:56;101319.72;;;35.46;33.28
47897;BME280;39629;51.400;5.494;2022-08-03T11:27:18;101319.03;;;34.79;34.48
47897;BME280;39629;51.400;5.494;2022-08-03T11:38:07;101315.31;;;35.66;33.76
47897;BME280;39629;51.400;5.494;2022-08-03T11:43:43;101320.53;;;35.57;33.77
47897;BME280;39629;51.400;5.494;2022-08-03T11:48:47;101315.88;;;36.12;34.72
47897;BME280;39629;51.400;5.494;2022-08-03T11:53:53;101314.13;;;34.91;35.06
47897;BME280;39629;51.400;5.494;2022-08-03T11:58:57;101313.50;;;35.25;36.23
47897;BME280;39629;51.400;5.494;2022-08-03T12:04:02;101322.97;;;35.58;34.01
47897;BME280;39629;51.400;5.494;2022-08-03T12:09:14;101313.16;;;36.02;35.78
47897;BME280;39629;51.400;5.494;2022-08-03T12:14:18;101313.66;;;36.14;33.22
47897;BME280;39629;51.400;5.494;2022-08-03T12:19:20;101320.94;;;36.29;32.78
47897;BME280;39629;51.400;5.494;2022-08-03T12:24:22;101322.66;;;35.65;34.33
47897;BME280;39629;51.400;5.494;2022-08-03T12:29:25;101314.25;;;36.11;35.06
47897;BME280;39629;51.400;5.494;2022-08-03T12:34:45;101303.00;;;36.07;34.30
47897;BME280;39629;51.400;5.494;2022-08-03T12:39:50;101314.31;;;35.91;32.96
47897;BME280;39629;51.400;5.494;2022-08-03T12:44:54;101312.44;;;35.21;34.15
47897;BME280;39629;51.400;5.494;2022-08-03T12:49:55;101313.16;;;36.07;33.29
47897;BME280;39629;51.400;5.494;2022-08-03T12:54:58;101305.13;;;34.86;34.99
47897;BME280;39629;51.400;5.494;2022-08-03T13:00:11;101308.47;;;35.63;34.62
47897;BME280;39629;51.400;5.494;2022-08-03T13:05:14;101309.84;;;35.60;33.32
47897;BME280;39629;51.400;5.494;2022-08-03T13:10:27;101308.22;;;35.54;35.01
47897;BME280;39629;51.400;5.494;2022-08-03T13:15:30;101303.13;;;36.31;31.94
47897;BME280;39629;51.400;5.494;2022-08-03T13:20:32;101305.88;;;36.90;33.31
47897;BME280;39629;51.400;5.494;2022-08-03T13:25:34;101302.63;;;36.24;36.28
47897;BME280;39629;51.400;5.494;2022-08-03T13:30:37;101289.84;;;36.44;33.17
47897;BME280;39629;51.400;5.494;2022-08-03T13:35:38;101286.34;;;36.38;31.93
47897;BME280;39629;51.400;5.494;2022-08-03T13:40:40;101287.56;;;36.56;31.88
47897;BME280;39629;51.400;5.494;2022-08-03T13:45:43;101302.19;;;37.53;32.70
47897;BME280;39629;51.400;5.494;2022-08-03T13:50:45;101293.56;;;37.16;31.22
47897;BME280;39629;51.400;5.494;2022-08-03T13:55:47;101286.19;;;36.88;33.15
47897;BME280;39629;51.400;5.494;2022-08-03T14:00:50;101287.63;;;36.80;31.82
47897;BME280;39629;51.400;5.494;2022-08-03T14:05:52;101272.53;;;36.53;31.48
47897;BME280;39629;51.400;5.494;2022-08-03T14:10:55;101268.72;;;36.79;31.73
47897;BME280;39629;51.400;5.494;2022-08-03T14:15:58;101264.47;;;37.15;31.75
47897;BME280;39629;51.400;5.494;2022-08-03T14:21:01;101265.56;;;37.38;30.55
47897;BME280;39629;51.400;5.494;2022-08-03T14:26:03;101259.09;;;37.72;31.38
47897;BME280;39629;51.400;5.494;2022-08-03T14:31:06;101254.81;;;36.70;31.30
47897;BME280;39629;51.400;5.494;2022-08-03T14:36:08;101249.44;;;37.13;32.15
47897;BME280;39629;51.400;5.494;2022-08-03T14:41:09;101250.75;;;37.39;30.79
47897;BME280;39629;51.400;5.494;2022-08-03T14:46:12;101241.44;;;37.16;30.47
47897;BME280;39629;51.400;5.494;2022-08-03T14:51:14;101232.75;;;37.09;30.28
47897;BME280;39629;51.400;5.494;2022-08-03T14:56:16;101237.47;;;37.04;31.84
47897;BME280;39629;51.400;5.494;2022-08-03T15:01:19;101226.75;;;36.25;31.16
47897;BME280;39629;51.400;5.494;2022-08-03T15:06:20;101232.69;;;37.14;30.75
47897;BME280;39629;51.400;5.494;2022-08-03T15:11:22;101220.75;;;37.05;30.60
47897;BME280;39629;51.400;5.494;2022-08-03T15:16:25;101211.91;;;36.60;30.27
47897;BME280;39629;51.400;5.494;2022-08-03T15:21:26;101210.31;;;36.78;30.71
47897;BME280;39629;51.400;5.494;2022-08-03T15:26:28;101206.66;;;36.88;30.31
47897;BME280;39629;51.400;5.494;2022-08-03T15:31:31;101201.38;;;36.67;30.59
47897;BME280;39629;51.400;5.494;2022-08-03T15:36:33;101195.31;;;36.17;31.43
47897;BME280;39629;51.400;5.494;2022-08-03T15:41:34;101201.28;;;36.78;31.37
47897;BME280;39629;51.400;5.494;2022-08-03T15:46:37;101197.22;;;36.46;30.92
47897;BME280;39629;51.400;5.494;2022-08-03T15:51:39;101184.88;;;35.40;30.63
47897;BME280;39629;51.400;5.494;2022-08-03T15:56:41;101179.97;;;35.37;31.61
47897;BME280;39629;51.400;5.494;2022-08-03T16:01:46;101183.72;;;35.57;32.49
47897;BME280;39629;51.400;5.494;2022-08-03T16:06:47;101166.19;;;34.98;31.75
47897;BME280;39629;51.400;5.494;2022-08-03T16:11:49;101172.31;;;35.34;32.12
47897;BME280;39629;51.400;5.494;2022-08-03T16:16:52;101170.88;;;34.87;33.38
47897;BME280;39629;51.400;5.494;2022-08-03T16:21:54;101165.03;;;35.14;33.33
47897;BME280;39629;51.400;5.494;2022-08-03T16:26:55;101159.88;;;35.03;33.23
47897;BME280;39629;51.400;5.494;2022-08-03T16:31:58;101157.69;;;34.99;33.51
47897;BME280;39629;51.400;5.494;2022-08-03T16:37:06;101151.00;;;34.71;32.85
47897;BME280;39629;51.400;5.494;2022-08-03T16:42:08;101153.19;;;34.64;32.94
47897;BME280;39629;51.400;5.494;2022-08-03T16:47:11;101152.97;;;34.40;33.30
47897;BME280;39629;51.400;5.494;2022-08-03T16:52:13;101156.81;;;34.19;34.05
47897;BME280;39629;51.400;5.494;2022-08-03T16:57:14;101150.25;;;34.30;34.58
47897;BME280;39629;51.400;5.494;2022-08-03T17:02:21;101153.50;;;33.71;34.34
47897;BME280;39629;51.400;5.494;2022-08-03T17:07:23;101149.16;;;33.75;34.80
47897;BME280;39629;51.400;5.494;2022-08-03T17:12:25;101149.94;;;33.65;35.12
47897;BME280;39629;51.400;5.494;2022-08-03T17:17:30;101152.97;;;33.63;37.32
47897;BME280;39629;51.400;5.494;2022-08-03T17:22:33;101148.03;;;33.55;35.41
47897;BME280;39629;51.400;5.494;2022-08-03T17:27:36;101145.25;;;33.45;35.38
47897;BME280;39629;51.400;5.494;2022-08-03T17:32:42;101146.41;;;33.49;35.67
47897;BME280;39629;51.400;5.494;2022-08-03T17:37:46;101136.50;;;33.33;37.34
47897;BME280;39629;51.400;5.494;2022-08-03T17:42:47;101143.06;;;33.37;39.25
47897;BME280;39629;51.400;5.494;2022-08-03T17:47:50;101144.69;;;33.28;39.37
47897;BME280;39629;51.400;5.494;2022-08-03T17:53:03;101149.72;;;32.93;39.67
47897;BME280;39629;51.400;5.494;2022-08-03T17:58:08;101154.31;;;32.88;41.20
47897;BME280;39629;51.400;5.494;2022-08-03T18:03:20;101144.50;;;32.82;42.10
47897;BME280;39629;51.400;5.494;2022-08-03T18:08:25;101147.31;;;32.44;43.98
47897;BME280;39629;51.400;5.494;2022-08-03T18:13:29;101143.56;;;32.18;44.05
47897;BME280;39629;51.400;5.494;2022-08-03T18:18:35;101154.31;;;32.03;43.58
47897;BME280;39629;51.400;5.494;2022-08-03T18:23:37;101140.94;;;31.69;45.11
47897;BME280;39629;51.400;5.494;2022-08-03T18:28:40;101141.72;;;31.37;46.80
47897;BME280;39629;51.400;5.494;2022-08-03T18:33:44;101137.94;;;31.16;46.97
47897;BME280;39629;51.400;5.494;2022-08-03T18:38:46;101141.72;;;30.54;46.19
47897;BME280;39629;51.400;5.494;2022-08-03T18:43:50;101139.16;;;30.26;47.98
47897;BME280;39629;51.400;5.494;2022-08-03T18:48:59;101133.69;;;30.43;50.76
47897;BME280;39629;51.400;5.494;2022-08-03T18:54:06;101129.69;;;30.28;51.39
47897;BME280;39629;51.400;5.494;2022-08-03T18:59:14;101137.22;;;30.09;52.02
47897;BME280;39629;51.400;5.494;2022-08-03T19:04:24;101140.69;;;29.88;50.20
47897;BME280;39629;51.400;5.494;2022-08-03T19:09:32;101140.75;;;29.59;51.01
47897;BME280;39629;51.400;5.494;2022-08-03T19:14:39;101138.34;;;29.34;53.31
47897;BME280;39629;51.400;5.494;2022-08-03T19:19:43;101142.44;;;29.08;54.26
47897;BME280;39629;51.400;5.494;2022-08-03T19:24:46;101151.44;;;28.85;55.10
47897;BME280;39629;51.400;5.494;2022-08-03T19:29:48;101148.63;;;28.45;56.53
47897;BME280;39629;51.400;5.494;2022-08-03T19:34:51;101160.53;;;27.90;61.67
47897;BME280;39629;51.400;5.494;2022-08-03T19:39:53;101162.75;;;27.93;61.33
47897;BME280;39629;51.400;5.494;2022-08-03T19:45:01;101170.69;;;28.18;59.24
47897;BME280;39629;51.400;5.494;2022-08-03T19:50:07;101170.06;;;27.93;60.68
47897;BME280;39629;51.400;5.494;2022-08-03T19:55:10;101169.06;;;27.75;61.12
47897;BME280;39629;51.400;5.494;2022-08-03T20:00:12;101177.34;;;27.62;63.28
47897;BME280;39629;51.400;5.494;2022-08-03T20:05:19;101177.03;;;27.40;62.55
47897;BME280;39629;51.400;5.494;2022-08-03T20:10:21;101172.44;;;27.22;62.09
47897;BME280;39629;51.400;5.494;2022-08-03T20:15:23;101171.22;;;27.00;62.82
47897;BME280;39629;51.400;5.494;2022-08-03T20:20:28;101168.25;;;26.89;62.71
47897;BME280;39629;51.400;5.494;2022-08-03T20:25:32;101168.09;;;26.84;62.70
47897;BME280;39629;51.400;5.494;2022-08-03T20:30:35;101173.63;;;26.71;63.90
47897;BME280;39629;51.400;5.494;2022-08-03T20:35:38;101174.22;;;26.55;64.06
47897;BME280;39629;51.400;5.494;2022-08-03T20:40:40;101186.22;;;26.34;65.07
47897;BME280;39629;51.400;5.494;2022-08-03T20:45:42;101182.72;;;26.26;65.27
47897;BME280;39629;51.400;5.494;2022-08-03T20:50:45;101183.94;;;26.37;64.37
47897;BME280;39629;51.400;5.494;2022-08-03T20:55:48;101179.75;;;26.10;65.80
47897;BME280;39629;51.400;5.494;2022-08-03T21:00:50;101176.25;;;25.71;68.70
47897;BME280;39629;51.400;5.494;2022-08-03T21:05:56;101179.91;;;25.83;68.05
47897;BME280;39629;51.400;5.494;2022-08-03T21:11:06;101179.19;;;26.01;67.31
47897;BME280;39629;51.400;5.494;2022-08-03T21:16:11;101167.16;;;26.03;65.47
47897;BME280;39629;51.400;5.494;2022-08-03T21:21:18;101169.22;;;25.70;67.82
47897;BME280;39629;51.400;5.494;2022-08-03T21:26:21;101163.94;;;25.43;68.91
47897;BME280;39629;51.400;5.494;2022-08-03T21:31:24;101157.47;;;25.57;69.76
47897;BME280;39629;51.400;5.494;2022-08-03T21:36:29;101166.47;;;25.31;70.47
47897;BME280;39629;51.400;5.494;2022-08-03T21:41:32;101154.09;;;25.24;71.33
47897;BME280;39629;51.400;5.494;2022-08-03T21:46:36;101152.56;;;24.76;73.48
47897;BME280;39629;51.400;5.494;2022-08-03T21:51:41;101143.25;;;24.79;73.67
47897;BME280;39629;51.400;5.494;2022-08-03T21:56:46;101147.25;;;24.23;76.66
47897;BME280;39629;51.400;5.494;2022-08-03T22:01:50;101154.66;;;24.14;76.38
47897;BME280;39629;51.400;5.494;2022-08-03T22:06:54;101142.63;;;24.63;74.46
47897;BME280;39629;51.400;5.494;2022-08-03T22:11:56;101143.91;;;24.14;77.16
47897;BME280;39629;51.400;5.494;2022-08-03T22:16:59;101146.16;;;23.91;78.78
47897;BME280;39629;51.400;5.494;2022-08-03T22:22:02;101141.91;;;23.42;81.52
47897;BME280;39629;51.400;5.494;2022-08-03T22:27:07;101136.06;;;23.25;82.32
47897;BME280;39629;51.400;5.494;2022-08-03T22:32:29;101147.56;;;23.67;79.91
47897;BME280;39629;51.400;5.494;2022-08-03T22:37:33;101139.94;;;23.70;79.28
47897;BME280;39629;51.400;5.494;2022-08-03T22:42:35;101144.50;;;23.70;79.28
47897;BME280;39629;51.400;5.494;2022-08-03T22:47:38;101132.09;;;23.89;78.80
47897;BME280;39629;51.400;5.494;2022-08-03T22:52:43;101137.75;;;23.39;80.41
47897;BME280;39629;51.400;5.494;2022-08-03T22:57:44;101130.53;;;23.39;80.77
47897;BME280;39629;51.400;5.494;2022-08-03T23:02:47;101133.09;;;23.61;79.89
47897;BME280;39629;51.400;5.494;2022-08-03T23:07:51;101133.72;;;23.63;79.85
47897;BME280;39629;51.400;5.494;2022-08-03T23:12:53;101129.47;;;23.40;80.45
47897;BME280;39629;51.400;5.494;2022-08-03T23:17:56;101123.25;;;22.50;86.13
47897;BME280;39629;51.400;5.494;2022-08-03T23:22:59;101128.41;;;22.80;85.76
47897;BME280;39629;51.400;5.494;2022-08-03T23:28:04;101128.34;;;23.08;83.49
47897;BME280;39629;51.400;5.494;2022-08-03T23:33:06;101116.56;;;23.03;83.77
47897;BME280;39629;51.400;5.494;2022-08-03T23:38:11;101113.22;;;22.66;85.39
47897;BME280;39629;51.400;5.494;2022-08-03T23:43:15;101115.63;;;22.82;83.99
47897;BME280;39629;51.400;5.494;2022-08-03T23:48:17;101109.03;;;22.85;83.88
47897;BME280;39629;51.400;5.494;2022-08-03T23:53:23;101115.53;;;22.69;84.32
47897;BME280;39629;51.400;5.494;2022-08-03T23:58:36;101106.78;;;22.54;85.17
